sensor_id;sensor_type;location;lat;lon;timestamp;P1;durP1;ratioP1;P2;durP2;ratioP2
7031;SDS011;3557;48.880;8.328;2024-02-21T00:01:15;7.50;;;2.50;;
7031;SDS011;3557;48.880;8.328;2024-02-21T00:03:42;7.88;;;2.72;;
7031;SDS011;3557;48.880;8.328;2024-02-21T00:06:10;9.15;;;2.55;;
7031;SDS011;3557;48.880;8.328;2024-02-21T00:08:37;5.80;;;2.38;;
7031;SDS011;3557;48.880;8.328;2024-02-21T00:11:04;6.75;;;2.45;;
7031;SDS011;3557;48.880;8.328;2024-02-21T00:13:33;11.75;;;3.00;;
7031;SDS011;3557;48.880;8.328;2024-02-21T00:16:00;9.40;;;2.90;;
7031;SDS011;3557;48.880;8.328;2024-02-21T00:18:28;7.68;;;2.72;;
7031;SDS011;3557;48.880;8.328;2024-02-21T00:20:55;6.45;;;2.67;;
7031;SDS011;3557;48.880;8.328;2024-02-21T00:23:23;6.43;;;2.53;;
7031;SDS011;3557;48.880;8.328;2024-02-21T00:25:50;7.13;;;2.83;;
7031;SDS011;3557;48.880;8.328;2024-02-21T00:28:17;8.30;;;2.60;;
7031;SDS011;3557;48.880;8.328;2024-02-21T00:30:46;6.53;;;3.40;;
7031;SDS011;3557;48.880;8.328;2024-02-21T00:33:15;10.05;;;2.97;;
7031;SDS011;3557;48.880;8.328;2024-02-21T00:35:43;6.57;;;2.40;;
7031;SDS011;3557;48.880;8.328;2024-02-21T00:38:10;11.40;;;3.25;;
7031;SDS011;3557;48.880;8.328;2024-02-21T00:40:38;7.00;;;2.75;;
7031;SDS011;3557;48.880;8.328;2024-02-21T00:43:05;8.23;;;2.67;;
7031;SDS011;3557;48.880;8.328;2024-02-21T00:45:32;8.85;;;3.00;;
7031;SDS011;3557;48.880;8.328;2024-02-21T00:48:01;5.18;;;2.38;;
7031;SDS011;3557;48.880;8.328;2024-02-21T00:50:29;8.77;;;2.85;;
7031;SDS011;3557;48.880;8.328;2024-02-21T00:52:57;8.48;;;2.90;;
7031;SDS011;3557;48.880;8.328;2024-02-21T00:55:24;7.38;;;2.55;;
7031;SDS011;3557;48.880;8.328;2024-02-21T00:57:51;12.32;;;2.97;;
7031;SDS011;3557;48.880;8.328;2024-02-21T01:00:19;5.65;;;2.45;;
7031;SDS011;3557;48.880;8.328;2024-02-21T01:02:47;9.40;;;2.35;;
7031;SDS011;3557;48.880;8.328;2024-02-21T01:05:15;9.30;;;2.30;;
7031;SDS011;3557;48.880;8.328;2024-02-21T01:07:43;6.25;;;2.45;;
7031;SDS011;3557;48.880;8.328;2024-02-21T01:10:10;4.70;;;2.13;;
7031;SDS011;3557;48.880;8.328;2024-02-21T01:12:37;7.63;;;2.28;;
7031;SDS011;3557;48.880;8.328;2024-02-21T01:15:05;7.07;;;2.40;;
7031;SDS011;3557;48.880;8.328;2024-02-21T01:17:33;9.20;;;2.72;;
7031;SDS011;3557;48.880;8.328;2024-02-21T01:20:00;6.78;;;2.22;;
7031;SDS011;3557;48.880;8.328;2024-02-21T01:22:32;8.65;;;2.50;;
7031;SDS011;3557;48.880;8.328;2024-02-21T01:24:59;9.50;;;2.60;;
7031;SDS011;3557;48.880;8.328;2024-02-21T01:27:26;10.23;;;2.60;;
7031;SDS011;3557;48.880;8.328;2024-02-21T01:29:54;6.95;;;2.53;;
7031;SDS011;3557;48.880;8.328;2024-02-21T01:32:21;11.02;;;3.30;;
7031;SDS011;3557;48.880;8.328;2024-02-21T01:34:49;8.85;;;2.70;;
7031;SDS011;3557;48.880;8.328;2024-02-21T01:37:16;10.10;;;2.78;;
7031;SDS011;3557;48.880;8.328;2024-02-21T01:39:45;7.13;;;2.22;;
7031;SDS011;3557;48.880;8.328;2024-02-21T01:42:14;8.73;;;2.50;;
7031;SDS011;3557;48.880;8.328;2024-02-21T01:44:41;5.93;;;2.20;;
7031;SDS011;3557;48.880;8.328;2024-02-21T01:47:09;9.52;;;2.60;;
7031;SDS011;3557;48.880;8.328;2024-02-21T01:49:38;9.10;;;2.55;;
7031;SDS011;3557;48.880;8.328;2024-02-21T01:52:06;8.43;;;2.50;;
7031;SDS011;3557;48.880;8.328;2024-02-21T01:54:34;6.68;;;2.17;;
7031;SDS011;3557;48.880;8.328;2024-02-21T01:57:03;9.57;;;2.50;;
7031;SDS011;3557;48.880;8.328;2024-02-21T01:59:30;5.20;;;2.45;;
7031;SDS011;3557;48.880;8.328;2024-02-21T02:01:58;12.85;;;2.75;;
7031;SDS011;3557;48.880;8.328;2024-02-21T02:04:25;7.72;;;2.55;;
7031;SDS011;3557;48.880;8.328;2024-02-21T02:06:53;6.63;;;2.55;;
7031;SDS011;3557;48.880;8.328;2024-02-21T02:09:21;5.20;;;2.45;;
7031;SDS011;3557;48.880;8.328;2024-02-21T02:11:49;9.40;;;2.63;;
7031;SDS011;3557;48.880;8.328;2024-02-21T02:14:18;4.88;;;2.25;;
7031;SDS011;3557;48.880;8.328;2024-02-21T02:16:46;8.15;;;2.30;;
7031;SDS011;3557;48.880;8.328;2024-02-21T02:19:13;6.88;;;2.40;;
7031;SDS011;3557;48.880;8.328;2024-02-21T02:21:42;8.52;;;2.50;;
7031;SDS011;3557;48.880;8.328;2024-02-21T02:24:14;4.55;;;2.30;;
7031;SDS011;3557;48.880;8.328;2024-02-21T02:26:42;5.55;;;2.35;;
7031;SDS011;3557;48.880;8.328;2024-02-21T02:29:10;11.07;;;2.83;;
7031;SDS011;3557;48.880;8.328;2024-02-21T02:31:37;8.40;;;2.30;;
7031;SDS011;3557;48.880;8.328;2024-02-21T02:34:05;8.82;;;2.92;;
7031;SDS011;3557;48.880;8.328;2024-02-21T02:36:32;8.65;;;2.50;;
7031;SDS011;3557;48.880;8.328;2024-02-21T02:39:00;8.82;;;2.42;;
7031;SDS011;3557;48.880;8.328;2024-02-21T02:41:29;6.53;;;2.55;;
7031;SDS011;3557;48.880;8.328;2024-02-21T02:43:56;5.97;;;2.30;;
7031;SDS011;3557;48.880;8.328;2024-02-21T02:46:24;6.97;;;2.22;;
7031;SDS011;3557;48.880;8.328;2024-02-21T02:48:51;6.95;;;2.20;;
7031;SDS011;3557;48.880;8.328;2024-02-21T02:51:19;8.63;;;2.33;;
7031;SDS011;3557;48.880;8.328;2024-02-21T02:53:46;6.50;;;2.40;;
7031;SDS011;3557;48.880;8.328;2024-02-21T02:56:14;5.82;;;2.15;;
7031;SDS011;3557;48.880;8.328;2024-02-21T02:58:43;10.05;;;2.58;;
7031;SDS011;3557;48.880;8.328;2024-02-21T03:01:11;5.68;;;2.15;;
7031;SDS011;3557;48.880;8.328;2024-02-21T03:03:38;6.75;;;2.40;;
7031;SDS011;3557;48.880;8.328;2024-02-21T03:06:06;8.23;;;2.50;;
7031;SDS011;3557;48.880;8.328;2024-02-21T03:08:33;6.45;;;2.50;;
7031;SDS011;3557;48.880;8.328;2024-02-21T03:11:01;8.43;;;2.60;;
7031;SDS011;3557;48.880;8.328;2024-02-21T03:13:28;10.18;;;3.13;;
7031;SDS011;3557;48.880;8.328;2024-02-21T03:15:57;9.50;;;2.58;;
7031;SDS011;3557;48.880;8.328;2024-02-21T03:18:24;7.45;;;2.88;;
7031;SDS011;3557;48.880;8.328;2024-02-21T03:20:52;7.35;;;2.40;;
7031;SDS011;3557;48.880;8.328;2024-02-21T03:23:19;10.50;;;3.17;;
7031;SDS011;3557;48.880;8.328;2024-02-21T03:25:46;8.15;;;2.53;;
7031;SDS011;3557;48.880;8.328;2024-02-21T03:28:14;7.33;;;2.47;;
7031;SDS011;3557;48.880;8.328;2024-02-21T03:30:42;8.02;;;2.83;;
7031;SDS011;3557;48.880;8.328;2024-02-21T03:33:11;8.65;;;2.70;;
7031;SDS011;3557;48.880;8.328;2024-02-21T03:35:39;10.88;;;3.00;;
7031;SDS011;3557;48.880;8.328;2024-02-21T03:38:06;9.27;;;3.17;;
7031;SDS011;3557;48.880;8.328;2024-02-21T03:40:33;6.18;;;2.80;;
7031;SDS011;3557;48.880;8.328;2024-02-21T03:43:01;6.38;;;2.60;;
7031;SDS011;3557;48.880;8.328;2024-02-21T03:45:28;9.88;;;2.88;;
7031;SDS011;3557;48.880;8.328;2024-02-21T03:47:56;5.47;;;2.60;;
7031;SDS011;3557;48.880;8.328;2024-02-21T03:50:26;7.43;;;2.70;;
7031;SDS011;3557;48.880;8.328;2024-02-21T03:52:53;6.65;;;2.90;;
7031;SDS011;3557;48.880;8.328;2024-02-21T03:55:21;7.80;;;3.30;;
7031;SDS011;3557;48.880;8.328;2024-02-21T03:57:48;9.50;;;3.93;;
7031;SDS011;3557;48.880;8.328;2024-02-21T04:00:31;5.97;;;3.27;;
7031;SDS011;3557;48.880;8.328;2024-02-21T04:02:58;7.37;;;3.63;;
7031;SDS011;3557;48.880;8.328;2024-02-21T04:05:27;10.63;;;3.93;;
7031;SDS011;3557;48.880;8.328;2024-02-21T04:07:54;7.93;;;2.80;;
7031;SDS011;3557;48.880;8.328;2024-02-21T04:10:22;7.43;;;3.60;;
7031;SDS011;3557;48.880;8.328;2024-02-21T04:12:49;8.53;;;3.17;;
7031;SDS011;3557;48.880;8.328;2024-02-21T04:15:16;7.70;;;3.17;;
7031;SDS011;3557;48.880;8.328;2024-02-21T04:17:44;5.97;;;2.60;;
7031;SDS011;3557;48.880;8.328;2024-02-21T04:20:13;9.40;;;3.10;;
7031;SDS011;3557;48.880;8.328;2024-02-21T04:22:43;6.67;;;2.57;;
7031;SDS011;3557;48.880;8.328;2024-02-21T04:25:11;8.93;;;3.20;;
7031;SDS011;3557;48.880;8.328;2024-02-21T04:27:38;8.27;;;2.80;;
7031;SDS011;3557;48.880;8.328;2024-02-21T04:30:07;7.67;;;3.60;;
7031;SDS011;3557;48.880;8.328;2024-02-21T04:32:36;7.93;;;2.83;;
7031;SDS011;3557;48.880;8.328;2024-02-21T04:35:03;6.30;;;2.77;;
7031;SDS011;3557;48.880;8.328;2024-02-21T04:37:32;7.20;;;2.97;;
7031;SDS011;3557;48.880;8.328;2024-02-21T04:40:00;12.07;;;3.33;;
7031;SDS011;3557;48.880;8.328;2024-02-21T04:42:28;11.67;;;3.40;;
7031;SDS011;3557;48.880;8.328;2024-02-21T04:44:55;5.47;;;3.00;;
7031;SDS011;3557;48.880;8.328;2024-02-21T04:47:22;6.63;;;2.70;;
7031;SDS011;3557;48.880;8.328;2024-02-21T04:49:50;10.03;;;2.73;;
7031;SDS011;3557;48.880;8.328;2024-02-21T04:52:17;6.57;;;2.70;;
7031;SDS011;3557;48.880;8.328;2024-02-21T04:54:45;6.30;;;3.00;;
7031;SDS011;3557;48.880;8.328;2024-02-21T04:57:14;9.77;;;3.10;;
7031;SDS011;3557;48.880;8.328;2024-02-21T05:02:10;7.13;;;3.53;;
7031;SDS011;3557;48.880;8.328;2024-02-21T05:04:37;6.97;;;3.20;;
7031;SDS011;3557;48.880;8.328;2024-02-21T05:07:06;7.23;;;3.33;;
7031;SDS011;3557;48.880;8.328;2024-02-21T05:09:36;7.70;;;3.87;;
7031;SDS011;3557;48.880;8.328;2024-02-21T05:12:04;8.73;;;4.00;;
7031;SDS011;3557;48.880;8.328;2024-02-21T05:14:33;9.77;;;4.50;;
7031;SDS011;3557;48.880;8.328;2024-02-21T05:17:00;10.03;;;4.10;;
7031;SDS011;3557;48.880;8.328;2024-02-21T05:19:27;9.10;;;4.30;;
7031;SDS011;3557;48.880;8.328;2024-02-21T05:21:55;10.40;;;4.20;;
7031;SDS011;3557;48.880;8.328;2024-02-21T05:24:22;9.97;;;4.43;;
7031;SDS011;3557;48.880;8.328;2024-02-21T05:26:49;10.70;;;5.33;;
7031;SDS011;3557;48.880;8.328;2024-02-21T05:29:17;13.77;;;4.73;;
7031;SDS011;3557;48.880;8.328;2024-02-21T05:31:55;13.50;;;5.70;;
7031;SDS011;3557;48.880;8.328;2024-02-21T05:34:23;15.93;;;8.97;;
7031;SDS011;3557;48.880;8.328;2024-02-21T05:36:51;15.43;;;7.07;;
7031;SDS011;3557;48.880;8.328;2024-02-21T05:39:18;9.13;;;5.30;;
7031;SDS011;3557;48.880;8.328;2024-02-21T05:41:47;10.30;;;4.83;;
7031;SDS011;3557;48.880;8.328;2024-02-21T05:44:15;12.20;;;6.03;;
7031;SDS011;3557;48.880;8.328;2024-02-21T05:46:43;12.67;;;6.00;;
7031;SDS011;3557;48.880;8.328;2024-02-21T05:49:12;12.50;;;6.53;;
7031;SDS011;3557;48.880;8.328;2024-02-21T05:51:39;13.30;;;4.97;;
7031;SDS011;3557;48.880;8.328;2024-02-21T05:54:06;10.23;;;4.47;;
7031;SDS011;3557;48.880;8.328;2024-02-21T05:56:34;7.87;;;3.93;;
7031;SDS011;3557;48.880;8.328;2024-02-21T05:59:01;11.47;;;3.80;;
7031;SDS011;3557;48.880;8.328;2024-02-21T06:01:29;12.70;;;4.20;;
7031;SDS011;3557;48.880;8.328;2024-02-21T06:03:56;11.47;;;3.93;;
7031;SDS011;3557;48.880;8.328;2024-02-21T06:06:24;11.47;;;3.90;;
7031;SDS011;3557;48.880;8.328;2024-02-21T06:08:52;12.77;;;3.90;;
7031;SDS011;3557;48.880;8.328;2024-02-21T06:11:19;7.87;;;3.93;;
7031;SDS011;3557;48.880;8.328;2024-02-21T06:13:47;10.17;;;4.40;;
7031;SDS011;3557;48.880;8.328;2024-02-21T06:16:14;10.67;;;4.23;;
7031;SDS011;3557;48.880;8.328;2024-02-21T06:18:42;8.07;;;4.40;;
7031;SDS011;3557;48.880;8.328;2024-02-21T06:21:09;10.30;;;4.27;;
7031;SDS011;3557;48.880;8.328;2024-02-21T06:23:39;11.70;;;8.17;;
7031;SDS011;3557;48.880;8.328;2024-02-21T06:26:06;11.60;;;5.73;;
7031;SDS011;3557;48.880;8.328;2024-02-21T06:28:33;13.90;;;5.77;;
7031;SDS011;3557;48.880;8.328;2024-02-21T06:31:00;10.13;;;4.90;;
7031;SDS011;3557;48.880;8.328;2024-02-21T06:33:28;8.33;;;4.47;;
7031;SDS011;3557;48.880;8.328;2024-02-21T06:35:55;10.50;;;3.67;;
7031;SDS011;3557;48.880;8.328;2024-02-21T06:38:23;7.10;;;3.07;;
7031;SDS011;3557;48.880;8.328;2024-02-21T06:40:51;7.13;;;2.80;;
7031;SDS011;3557;48.880;8.328;2024-02-21T06:43:19;9.60;;;3.30;;
7031;SDS011;3557;48.880;8.328;2024-02-21T06:45:47;8.60;;;2.90;;
7031;SDS011;3557;48.880;8.328;2024-02-21T06:48:17;9.40;;;3.40;;
7031;SDS011;3557;48.880;8.328;2024-02-21T06:50:44;9.33;;;3.70;;
7031;SDS011;3557;48.880;8.328;2024-02-21T06:53:12;12.53;;;5.20;;
7031;SDS011;3557;48.880;8.328;2024-02-21T06:55:39;11.90;;;5.13;;
7031;SDS011;3557;48.880;8.328;2024-02-21T06:58:08;17.83;;;7.10;;
7031;SDS011;3557;48.880;8.328;2024-02-21T07:00:37;16.43;;;6.20;;
7031;SDS011;3557;48.880;8.328;2024-02-21T07:03:05;8.87;;;3.00;;
7031;SDS011;3557;48.880;8.328;2024-02-21T07:05:33;7.97;;;3.13;;
7031;SDS011;3557;48.880;8.328;2024-02-21T07:08:00;8.40;;;2.90;;
7031;SDS011;3557;48.880;8.328;2024-02-21T07:10:28;6.77;;;2.60;;
7031;SDS011;3557;48.880;8.328;2024-02-21T07:12:56;7.70;;;2.57;;
7031;SDS011;3557;48.880;8.328;2024-02-21T07:15:24;6.20;;;2.40;;
7031;SDS011;3557;48.880;8.328;2024-02-21T07:17:53;7.07;;;3.40;;
7031;SDS011;3557;48.880;8.328;2024-02-21T07:20:21;8.23;;;4.10;;
7031;SDS011;3557;48.880;8.328;2024-02-21T07:22:48;12.57;;;4.70;;
7031;SDS011;3557;48.880;8.328;2024-02-21T07:25:16;11.43;;;4.60;;
7031;SDS011;3557;48.880;8.328;2024-02-21T07:27:43;11.00;;;4.60;;
7031;SDS011;3557;48.880;8.328;2024-02-21T07:30:12;7.77;;;4.50;;
7031;SDS011;3557;48.880;8.328;2024-02-21T07:32:41;8.67;;;4.57;;
7031;SDS011;3557;48.880;8.328;2024-02-21T07:35:08;5.20;;;3.47;;
7031;SDS011;3557;48.880;8.328;2024-02-21T07:37:37;9.17;;;3.90;;
7031;SDS011;3557;48.880;8.328;2024-02-21T07:40:05;6.40;;;3.10;;
7031;SDS011;3557;48.880;8.328;2024-02-21T07:42:38;7.83;;;3.07;;
7031;SDS011;3557;48.880;8.328;2024-02-21T07:45:05;4.85;;;2.88;;
7031;SDS011;3557;48.880;8.328;2024-02-21T07:47:33;6.68;;;2.80;;
7031;SDS011;3557;48.880;8.328;2024-02-21T07:50:02;5.68;;;2.72;;
7031;SDS011;3557;48.880;8.328;2024-02-21T07:52:29;8.02;;;2.95;;
7031;SDS011;3557;48.880;8.328;2024-02-21T07:54:57;7.97;;;2.65;;
7031;SDS011;3557;48.880;8.328;2024-02-21T07:57:24;6.30;;;3.03;;
7031;SDS011;3557;48.880;8.328;2024-02-21T07:59:51;9.18;;;4.10;;
7031;SDS011;3557;48.880;8.328;2024-02-21T08:02:19;10.10;;;4.35;;
7031;SDS011;3557;48.880;8.328;2024-02-21T08:04:46;7.55;;;4.55;;
7031;SDS011;3557;48.880;8.328;2024-02-21T08:07:15;6.50;;;3.80;;
7031;SDS011;3557;48.880;8.328;2024-02-21T08:09:42;9.20;;;3.95;;
7031;SDS011;3557;48.880;8.328;2024-02-21T08:12:09;7.15;;;3.13;;
7031;SDS011;3557;48.880;8.328;2024-02-21T08:14:37;6.38;;;2.60;;
7031;SDS011;3557;48.880;8.328;2024-02-21T08:17:04;5.20;;;3.17;;
7031;SDS011;3557;48.880;8.328;2024-02-21T08:19:31;7.38;;;2.38;;
7031;SDS011;3557;48.880;8.328;2024-02-21T08:21:59;11.65;;;2.80;;
7031;SDS011;3557;48.880;8.328;2024-02-21T08:24:27;7.97;;;2.80;;
7031;SDS011;3557;48.880;8.328;2024-02-21T08:26:55;9.63;;;2.70;;
7031;SDS011;3557;48.880;8.328;2024-02-21T08:29:22;5.05;;;2.47;;
7031;SDS011;3557;48.880;8.328;2024-02-21T08:31:49;6.45;;;2.25;;
7031;SDS011;3557;48.880;8.328;2024-02-21T08:34:17;5.53;;;2.88;;
7031;SDS011;3557;48.880;8.328;2024-02-21T08:36:44;8.18;;;2.70;;
7031;SDS011;3557;48.880;8.328;2024-02-21T08:39:12;7.45;;;2.67;;
7031;SDS011;3557;48.880;8.328;2024-02-21T08:41:43;9.27;;;4.03;;
7031;SDS011;3557;48.880;8.328;2024-02-21T08:44:10;10.98;;;2.75;;
7031;SDS011;3557;48.880;8.328;2024-02-21T08:46:37;7.18;;;2.65;;
7031;SDS011;3557;48.880;8.328;2024-02-21T08:49:05;5.43;;;2.17;;
7031;SDS011;3557;48.880;8.328;2024-02-21T08:51:32;5.88;;;2.70;;
7031;SDS011;3557;48.880;8.328;2024-02-21T08:54:00;10.93;;;2.58;;
7031;SDS011;3557;48.880;8.328;2024-02-21T08:56:29;6.18;;;2.90;;
7031;SDS011;3557;48.880;8.328;2024-02-21T08:58:59;8.15;;;2.60;;
7031;SDS011;3557;48.880;8.328;2024-02-21T09:01:26;8.65;;;3.00;;
7031;SDS011;3557;48.880;8.328;2024-02-21T09:03:54;8.13;;;2.55;;
7031;SDS011;3557;48.880;8.328;2024-02-21T09:06:22;8.45;;;2.88;;
7031;SDS011;3557;48.880;8.328;2024-02-21T09:08:49;7.93;;;2.92;;
7031;SDS011;3557;48.880;8.328;2024-02-21T09:11:16;9.25;;;2.70;;
7031;SDS011;3557;48.880;8.328;2024-02-21T09:13:44;7.40;;;3.17;;
7031;SDS011;3557;48.880;8.328;2024-02-21T09:16:13;6.63;;;2.95;;
7031;SDS011;3557;48.880;8.328;2024-02-21T09:18:40;7.00;;;2.53;;
7031;SDS011;3557;48.880;8.328;2024-02-21T09:21:07;9.13;;;2.60;;
7031;SDS011;3557;48.880;8.328;2024-02-21T09:23:35;10.40;;;2.42;;
7031;SDS011;3557;48.880;8.328;2024-02-21T09:26:02;8.93;;;3.00;;
7031;SDS011;3557;48.880;8.328;2024-02-21T09:28:30;7.55;;;2.63;;
7031;SDS011;3557;48.880;8.328;2024-02-21T09:30:59;6.22;;;2.53;;
7031;SDS011;3557;48.880;8.328;2024-02-21T09:33:28;7.03;;;2.72;;
7031;SDS011;3557;48.880;8.328;2024-02-21T09:35:56;6.25;;;2.40;;
7031;SDS011;3557;48.880;8.328;2024-02-21T09:38:23;7.10;;;2.65;;
7031;SDS011;3557;48.880;8.328;2024-02-21T09:40:52;5.72;;;2.53;;
7031;SDS011;3557;48.880;8.328;2024-02-21T09:43:25;6.90;;;2.90;;
7031;SDS011;3557;48.880;8.328;2024-02-21T09:45:54;7.90;;;2.85;;
7031;SDS011;3557;48.880;8.328;2024-02-21T09:48:27;9.52;;;2.70;;
7031;SDS011;3557;48.880;8.328;2024-02-21T09:51:04;7.50;;;2.80;;
7031;SDS011;3557;48.880;8.328;2024-02-21T09:53:33;8.15;;;2.50;;
7031;SDS011;3557;48.880;8.328;2024-02-21T09:56:01;9.93;;;3.13;;
7031;SDS011;3557;48.880;8.328;2024-02-21T09:58:29;6.43;;;2.40;;
7031;SDS011;3557;48.880;8.328;2024-02-21T10:00:57;7.85;;;2.58;;
7031;SDS011;3557;48.880;8.328;2024-02-21T10:03:25;5.68;;;2.70;;
7031;SDS011;3557;48.880;8.328;2024-02-21T10:05:54;6.40;;;2.30;;
7031;SDS011;3557;48.880;8.328;2024-02-21T10:08:21;5.63;;;2.50;;
7031;SDS011;3557;48.880;8.328;2024-02-21T10:10:49;5.55;;;2.40;;
7031;SDS011;3557;48.880;8.328;2024-02-21T10:13:25;9.25;;;2.72;;
7031;SDS011;3557;48.880;8.328;2024-02-21T10:16:02;5.82;;;2.60;;
7031;SDS011;3557;48.880;8.328;2024-02-21T10:18:31;6.10;;;2.58;;
7031;SDS011;3557;48.880;8.328;2024-02-21T10:21:06;7.55;;;2.47;;
7031;SDS011;3557;48.880;8.328;2024-02-21T10:23:40;6.85;;;2.75;;
7031;SDS011;3557;48.880;8.328;2024-02-21T10:26:12;4.82;;;2.40;;
7031;SDS011;3557;48.880;8.328;2024-02-21T10:28:40;9.70;;;2.40;;
7031;SDS011;3557;48.880;8.328;2024-02-21T10:31:10;5.05;;;2.47;;
7031;SDS011;3557;48.880;8.328;2024-02-21T10:33:53;4.68;;;2.70;;
7031;SDS011;3557;48.880;8.328;2024-02-21T10:36:22;7.25;;;2.80;;
7031;SDS011;3557;48.880;8.328;2024-02-21T10:38:50;5.00;;;2.50;;
7031;SDS011;3557;48.880;8.328;2024-02-21T10:41:19;7.65;;;2.58;;
7031;SDS011;3557;48.880;8.328;2024-02-21T10:43:49;6.53;;;2.50;;
7031;SDS011;3557;48.880;8.328;2024-02-21T10:46:19;6.50;;;2.20;;
7031;SDS011;3557;48.880;8.328;2024-02-21T10:48:48;5.50;;;2.60;;
7031;SDS011;3557;48.880;8.328;2024-02-21T10:51:22;5.60;;;2.28;;
7031;SDS011;3557;48.880;8.328;2024-02-21T10:53:57;5.43;;;2.40;;
7031;SDS011;3557;48.880;8.328;2024-02-21T10:56:35;5.20;;;2.60;;
7031;SDS011;3557;48.880;8.328;2024-02-21T10:59:07;8.00;;;2.80;;
7031;SDS011;3557;48.880;8.328;2024-02-21T11:01:35;6.68;;;2.08;;
7031;SDS011;3557;48.880;8.328;2024-02-21T11:04:02;6.72;;;2.28;;
7031;SDS011;3557;48.880;8.328;2024-02-21T11:06:34;7.95;;;2.40;;
7031;SDS011;3557;48.880;8.328;2024-02-21T11:09:03;5.97;;;2.70;;
7031;SDS011;3557;48.880;8.328;2024-02-21T11:11:33;8.10;;;2.40;;
7031;SDS011;3557;48.880;8.328;2024-02-21T11:14:04;6.55;;;2.38;;
7031;SDS011;3557;48.880;8.328;2024-02-21T11:16:36;4.60;;;2.10;;
7031;SDS011;3557;48.880;8.328;2024-02-21T11:19:08;6.25;;;2.10;;
7031;SDS011;3557;48.880;8.328;2024-02-21T11:21:38;5.40;;;2.20;;
7031;SDS011;3557;48.880;8.328;2024-02-21T11:24:07;7.57;;;2.63;;
7031;SDS011;3557;48.880;8.328;2024-02-21T11:26:36;5.82;;;2.45;;
7031;SDS011;3557;48.880;8.328;2024-02-21T11:29:04;3.70;;;1.90;;
7031;SDS011;3557;48.880;8.328;2024-02-21T11:31:40;4.30;;;2.10;;
7031;SDS011;3557;48.880;8.328;2024-02-21T11:34:09;4.28;;;1.80;;
7031;SDS011;3557;48.880;8.328;2024-02-21T11:36:47;7.07;;;2.10;;
7031;SDS011;3557;48.880;8.328;2024-02-21T11:39:19;4.45;;;1.90;;
7031;SDS011;3557;48.880;8.328;2024-02-21T11:41:59;3.40;;;1.85;;
7031;SDS011;3557;48.880;8.328;2024-02-21T11:44:29;5.75;;;2.10;;
7031;SDS011;3557;48.880;8.328;2024-02-21T11:46:56;5.70;;;2.00;;
7031;SDS011;3557;48.880;8.328;2024-02-21T11:49:24;4.80;;;1.90;;
7031;SDS011;3557;48.880;8.328;2024-02-21T11:51:58;5.18;;;1.83;;
7031;SDS011;3557;48.880;8.328;2024-02-21T11:54:29;4.18;;;1.90;;
7031;SDS011;3557;48.880;8.328;2024-02-21T11:56:56;5.50;;;1.95;;
7031;SDS011;3557;48.880;8.328;2024-02-21T11:59:24;3.70;;;1.90;;
7031;SDS011;3557;48.880;8.328;2024-02-21T12:01:52;3.42;;;1.58;;
7031;SDS011;3557;48.880;8.328;2024-02-21T12:04:20;5.38;;;2.00;;
7031;SDS011;3557;48.880;8.328;2024-02-21T12:06:49;2.95;;;1.80;;
7031;SDS011;3557;48.880;8.328;2024-02-21T12:09:18;5.43;;;1.98;;
7031;SDS011;3557;48.880;8.328;2024-02-21T12:11:45;5.90;;;1.98;;
7031;SDS011;3557;48.880;8.328;2024-02-21T12:14:24;4.68;;;1.85;;
7031;SDS011;3557;48.880;8.328;2024-02-21T12:16:52;3.60;;;1.70;;
7031;SDS011;3557;48.880;8.328;2024-02-21T12:19:19;6.60;;;1.65;;
7031;SDS011;3557;48.880;8.328;2024-02-21T12:21:47;4.07;;;2.20;;
7031;SDS011;3557;48.880;8.328;2024-02-21T12:24:22;5.13;;;1.80;;
7031;SDS011;3557;48.880;8.328;2024-02-21T12:26:50;4.88;;;1.88;;
7031;SDS011;3557;48.880;8.328;2024-02-21T12:29:18;2.97;;;1.83;;
7031;SDS011;3557;48.880;8.328;2024-02-21T12:31:46;3.63;;;1.85;;
7031;SDS011;3557;48.880;8.328;2024-02-21T12:34:14;4.78;;;1.83;;
7031;SDS011;3557;48.880;8.328;2024-02-21T12:36:42;5.93;;;2.10;;
7031;SDS011;3557;48.880;8.328;2024-02-21T12:39:12;6.68;;;2.30;;
7031;SDS011;3557;48.880;8.328;2024-02-21T12:41:42;5.35;;;1.90;;
7031;SDS011;3557;48.880;8.328;2024-02-21T12:44:10;4.45;;;1.88;;
7031;SDS011;3557;48.880;8.328;2024-02-21T12:46:38;6.05;;;1.75;;
7031;SDS011;3557;48.880;8.328;2024-02-21T12:49:06;6.32;;;1.70;;
7031;SDS011;3557;48.880;8.328;2024-02-21T12:51:33;5.78;;;2.42;;
7031;SDS011;3557;48.880;8.328;2024-02-21T12:54:01;4.82;;;1.83;;
7031;SDS011;3557;48.880;8.328;2024-02-21T12:56:29;4.55;;;1.90;;
7031;SDS011;3557;48.880;8.328;2024-02-21T12:58:58;8.48;;;2.58;;
7031;SDS011;3557;48.880;8.328;2024-02-21T13:01:25;3.58;;;2.00;;
7031;SDS011;3557;48.880;8.328;2024-02-21T13:03:53;2.72;;;1.60;;
7031;SDS011;3557;48.880;8.328;2024-02-21T13:06:20;3.10;;;1.88;;
7031;SDS011;3557;48.880;8.328;2024-02-21T13:08:48;3.03;;;1.67;;
7031;SDS011;3557;48.880;8.328;2024-02-21T13:11:16;4.60;;;1.77;;
7031;SDS011;3557;48.880;8.328;2024-02-21T13:13:44;3.88;;;1.90;;
7031;SDS011;3557;48.880;8.328;2024-02-21T13:16:12;4.60;;;1.70;;
7031;SDS011;3557;48.880;8.328;2024-02-21T13:18:40;2.88;;;1.75;;
7031;SDS011;3557;48.880;8.328;2024-02-21T13:21:08;5.00;;;2.40;;
7031;SDS011;3557;48.880;8.328;2024-02-21T13:23:35;3.67;;;1.80;;
7031;SDS011;3557;48.880;8.328;2024-02-21T13:26:03;4.20;;;1.80;;
7031;SDS011;3557;48.880;8.328;2024-02-21T13:28:30;3.85;;;2.00;;
7031;SDS011;3557;48.880;8.328;2024-02-21T13:30:58;3.95;;;1.77;;
7031;SDS011;3557;48.880;8.328;2024-02-21T13:33:26;5.95;;;2.00;;
7031;SDS011;3557;48.880;8.328;2024-02-21T13:35:54;4.60;;;1.73;;
7031;SDS011;3557;48.880;8.328;2024-02-21T13:38:21;5.38;;;1.95;;
7031;SDS011;3557;48.880;8.328;2024-02-21T13:40:49;5.53;;;2.13;;
7031;SDS011;3557;48.880;8.328;2024-02-21T13:43:18;5.80;;;2.05;;
7031;SDS011;3557;48.880;8.328;2024-02-21T13:45:57;6.90;;;2.00;;
7031;SDS011;3557;48.880;8.328;2024-02-21T13:48:27;6.20;;;2.05;;
7031;SDS011;3557;48.880;8.328;2024-02-21T13:50:55;4.07;;;1.92;;
7031;SDS011;3557;48.880;8.328;2024-02-21T13:53:22;4.43;;;1.90;;
7031;SDS011;3557;48.880;8.328;2024-02-21T13:55:50;4.97;;;2.05;;
7031;SDS011;3557;48.880;8.328;2024-02-21T13:58:17;4.28;;;1.98;;
7031;SDS011;3557;48.880;8.328;2024-02-21T14:00:45;6.13;;;2.22;;
7031;SDS011;3557;48.880;8.328;2024-02-21T14:03:12;6.70;;;2.10;;
7031;SDS011;3557;48.880;8.328;2024-02-21T14:05:41;6.82;;;2.25;;
7031;SDS011;3557;48.880;8.328;2024-02-21T14:08:08;4.38;;;1.90;;
7031;SDS011;3557;48.880;8.328;2024-02-21T14:10:43;4.40;;;1.70;;
7031;SDS011;3557;48.880;8.328;2024-02-21T14:13:11;3.97;;;2.10;;
7031;SDS011;3557;48.880;8.328;2024-02-21T14:15:39;4.80;;;2.05;;
7031;SDS011;3557;48.880;8.328;2024-02-21T14:18:09;7.40;;;2.30;;
7031;SDS011;3557;48.880;8.328;2024-02-21T14:20:38;5.68;;;2.10;;
7031;SDS011;3557;48.880;8.328;2024-02-21T14:23:07;5.20;;;1.88;;
7031;SDS011;3557;48.880;8.328;2024-02-21T14:25:35;4.28;;;2.10;;
7031;SDS011;3557;48.880;8.328;2024-02-21T14:28:04;3.50;;;1.92;;
7031;SDS011;3557;48.880;8.328;2024-02-21T14:30:34;5.55;;;2.42;;
7031;SDS011;3557;48.880;8.328;2024-02-21T14:33:02;4.15;;;2.10;;
7031;SDS011;3557;48.880;8.328;2024-02-21T14:35:30;5.47;;;2.17;;
7031;SDS011;3557;48.880;8.328;2024-02-21T14:38:00;5.30;;;2.30;;
7031;SDS011;3557;48.880;8.328;2024-02-21T14:40:28;4.85;;;2.30;;
7031;SDS011;3557;48.880;8.328;2024-02-21T14:42:55;3.03;;;1.73;;
7031;SDS011;3557;48.880;8.328;2024-02-21T14:45:23;5.50;;;2.10;;
7031;SDS011;3557;48.880;8.328;2024-02-21T14:47:50;4.63;;;2.05;;
7031;SDS011;3557;48.880;8.328;2024-02-21T14:50:17;5.95;;;2.40;;
7031;SDS011;3557;48.880;8.328;2024-02-21T14:52:45;4.55;;;2.00;;
7031;SDS011;3557;48.880;8.328;2024-02-21T14:55:14;3.65;;;2.10;;
7031;SDS011;3557;48.880;8.328;2024-02-21T14:57:42;4.40;;;1.98;;
7031;SDS011;3557;48.880;8.328;2024-02-21T15:00:10;4.57;;;1.98;;
7031;SDS011;3557;48.880;8.328;2024-02-21T15:02:38;5.78;;;2.10;;
7031;SDS011;3557;48.880;8.328;2024-02-21T15:05:06;6.40;;;2.10;;
7031;SDS011;3557;48.880;8.328;2024-02-21T15:07:34;5.22;;;2.10;;
7031;SDS011;3557;48.880;8.328;2024-02-21T15:10:02;5.57;;;2.22;;
7031;SDS011;3557;48.880;8.328;2024-02-21T15:12:31;5.38;;;2.10;;
7031;SDS011;3557;48.880;8.328;2024-02-21T15:14:58;6.05;;;2.58;;
7031;SDS011;3557;48.880;8.328;2024-02-21T15:17:25;5.93;;;2.10;;
7031;SDS011;3557;48.880;8.328;2024-02-21T15:19:53;5.07;;;2.50;;
7031;SDS011;3557;48.880;8.328;2024-02-21T15:22:20;8.65;;;3.05;;